Aérodrome :
LOGIN :

S'inscrire | Disclaimer

   EN    FR    IT 

 










Légende :    VFR   VFR Marginal   IFR   IFR Intensif   IFR Très Intensif
Visi : 
Plafond : 
>= 8 km
>= 3000ft
5 à 8 km
1000 à 3000 ft
1500m à 5 km
500 à 1000 ft
800 à 1500m
200 à 500 ft
< 800m
< 200 ft
Symboles :   Orages  Brouillard  Fortes neiges  Fortes précipitations  Vent > 20 kt
SIGMETs :   Divers  Orages  Givrage  Turbulence  Onde Orograph.  Cendres Volcan.







- Altitude de l'aérodrome : 357 ft
- Code IATA : TUF
- Voir les cartes d'approche


LFOT - Tours

DERNIER METAR :
  • 252000Z AUTO 00000KT CAVOK 06/M00 Q1011 NOSIG

METARs EXPIRÉS :
  • 251930Z AUTO 10002KT CAVOK 06/01 Q1011 NOSIG
  • 251900Z AUTO 06004KT CAVOK 06/01 Q1011 NOSIG
  • 251830Z AUTO 07008KT 040V100 9999 FEW045 BKN054 OVC066 07/M01 Q1011 NOSIG
  • 251800Z AUTO 01008KT 330V040 9999 BKN045 OVC052 07/M01 Q1011 NOSIG
  • 251730Z AUTO 36008KT 9999 FEW041 OVC047 08/M00 Q1011 NOSIG

TAF TAF LFOT
Valide du 25 à 18h jusqu'au 26 à 18h UTC


251700Z 2518/2618 03006KT 9999 BKN040
BECMG 2519/2521 CAVOK
TEMPO 2609/2618 3000 SHRA BKN025TCU
PROB30
TEMPO 2612/2618 TSRA BKN020CB
Pas de NOTAMs connus pour ce terrain.



MET'MAP, la Météo Aéronautique d'un coup d'oeil ! - Copyright ORBIFLY Décembre 2007 - Disclaimer

ORBIFLY MET'MAP TEAM :

Programmation & Développement : Alexandra Zaïnal
Conception & Développement : Baudouin d'Aumeries
Co-Programmation & Développement : Marc-Olivier Méhu
Soutien technique & logistique : Manuel Goepfert

Contact : metmap@orbifly.com




SOURCES & CREDITS :

   NOAA